createdAt,value
2017-12-10T00:02:03.288Z,74.9
2017-12-10T00:07:03.513Z,74.9
2017-12-10T00:12:03.604Z,74.9
2017-12-10T00:17:03.658Z,74.9
2017-12-10T00:22:03.676Z,74.8
2017-12-10T00:27:03.798Z,74.7
2017-12-10T00:32:03.933Z,74.8
2017-12-10T00:37:03.306Z,74.9
2017-12-10T00:42:03.428Z,74.8
2017-12-10T00:47:03.435Z,74.6
2017-12-10T00:52:03.489Z,74.7
2017-12-10T00:57:03.478Z,74.7
2017-12-10T01:02:03.507Z,74.7
2017-12-10T01:07:03.254Z,74.6
2017-12-10T01:12:03.492Z,75.0
2017-12-10T01:17:03.697Z,74.9
2017-12-10T01:22:03.514Z,74.7
2017-12-10T01:27:03.571Z,74.7
2017-12-10T01:32:03.579Z,74.9
2017-12-10T01:37:03.656Z,74.8
2017-12-10T01:42:03.645Z,74.8
2017-12-10T01:47:03.723Z,74.8
2017-12-10T01:52:03.410Z,74.8
2017-12-10T01:57:03.447Z,74.8
2017-12-10T02:02:03.560Z,74.9
2017-12-10T02:07:03.585Z,74.8
2017-12-10T02:12:03.746Z,74.8
2017-12-10T02:17:03.899Z,74.9
2017-12-10T02:22:04.014Z,74.9
2017-12-10T02:27:03.139Z,74.9
2017-12-10T02:32:03.160Z,74.8
2017-12-10T02:37:03.173Z,74.9
2017-12-10T02:42:03.354Z,74.8
2017-12-10T02:47:03.343Z,75.0
2017-12-10T02:52:03.180Z,75.2
2017-12-10T02:57:03.243Z,75.3
2017-12-10T03:02:03.360Z,75.0
2017-12-10T03:07:03.526Z,75.0
2017-12-10T03:12:03.765Z,75.1
2017-12-10T03:17:03.902Z,75.0
2017-12-10T03:22:03.995Z,74.8
2017-12-10T03:27:03.066Z,74.8
2017-12-10T03:32:03.138Z,74.8
2017-12-10T03:37:03.728Z,74.7
2017-12-10T03:42:03.758Z,74.7
2017-12-10T03:47:03.895Z,74.8
2017-12-10T03:52:03.035Z,74.6
2017-12-10T03:57:03.192Z,74.7
